sensor_id;sensor_type;location;lat;lon;timestamp;P1;durP1;ratioP1;P2;durP2;ratioP2
78372;SDS011;67656;52.074;4.758;2024-03-06T00:00:01;33.60;;;13.02;;
78372;SDS011;67656;52.074;4.758;2024-03-06T00:05:04;31.30;;;13.80;;
78372;SDS011;67656;52.074;4.758;2024-03-06T00:10:05;27.02;;;12.85;;
78372;SDS011;67656;52.074;4.758;2024-03-06T00:15:06;34.17;;;13.77;;
78372;SDS011;67656;52.074;4.758;2024-03-06T00:20:09;31.53;;;14.27;;
78372;SDS011;67656;52.074;4.758;2024-03-06T00:25:10;32.43;;;14.37;;
78372;SDS011;67656;52.074;4.758;2024-03-06T00:30:11;32.63;;;14.63;;
78372;SDS011;67656;52.074;4.758;2024-03-06T00:35:11;32.43;;;15.43;;
78372;SDS011;67656;52.074;4.758;2024-03-06T00:40:12;34.27;;;14.60;;
78372;SDS011;67656;52.074;4.758;2024-03-06T00:45:13;30.83;;;14.47;;
78372;SDS011;67656;52.074;4.758;2024-03-06T00:50:13;31.90;;;15.73;;
78372;SDS011;67656;52.074;4.758;2024-03-06T00:55:16;33.30;;;15.30;;
78372;SDS011;67656;52.074;4.758;2024-03-06T01:00:17;36.87;;;16.23;;
78372;SDS011;67656;52.074;4.758;2024-03-06T01:05:18;33.30;;;15.43;;
78372;SDS011;67656;52.074;4.758;2024-03-06T01:10:18;34.60;;;15.25;;
78372;SDS011;67656;52.074;4.758;2024-03-06T01:15:19;33.40;;;15.00;;
78372;SDS011;67656;52.074;4.758;2024-03-06T01:20:19;31.80;;;14.65;;
78372;SDS011;67656;52.074;4.758;2024-03-06T01:25:20;31.23;;;14.80;;
78372;SDS011;67656;52.074;4.758;2024-03-06T01:30:21;33.90;;;15.23;;
78372;SDS011;67656;52.074;4.758;2024-03-06T01:35:21;34.33;;;14.40;;
78372;SDS011;67656;52.074;4.758;2024-03-06T01:40:21;34.20;;;15.18;;
78372;SDS011;67656;52.074;4.758;2024-03-06T01:45:22;37.83;;;16.05;;
78372;SDS011;67656;52.074;4.758;2024-03-06T01:50:22;34.93;;;16.13;;
78372;SDS011;67656;52.074;4.758;2024-03-06T01:55:23;36.92;;;15.98;;
78372;SDS011;67656;52.074;4.758;2024-03-06T02:00:23;40.27;;;16.73;;
78372;SDS011;67656;52.074;4.758;2024-03-06T02:05:24;40.53;;;16.60;;
78372;SDS011;67656;52.074;4.758;2024-03-06T02:10:25;42.07;;;17.47;;
78372;SDS011;67656;52.074;4.758;2024-03-06T02:15:26;42.00;;;17.37;;
78372;SDS011;67656;52.074;4.758;2024-03-06T02:20:27;40.83;;;16.63;;
78372;SDS011;67656;52.074;4.758;2024-03-06T02:25:28;39.40;;;16.37;;
78372;SDS011;67656;52.074;4.758;2024-03-06T02:30:28;38.30;;;16.10;;
78372;SDS011;67656;52.074;4.758;2024-03-06T02:35:29;35.42;;;15.95;;
78372;SDS011;67656;52.074;4.758;2024-03-06T02:40:33;38.37;;;15.30;;
78372;SDS011;67656;52.074;4.758;2024-03-06T02:45:33;38.92;;;16.13;;
78372;SDS011;67656;52.074;4.758;2024-03-06T02:50:34;37.40;;;15.80;;
78372;SDS011;67656;52.074;4.758;2024-03-06T02:55:34;38.08;;;16.73;;
78372;SDS011;67656;52.074;4.758;2024-03-06T03:00:35;41.97;;;16.67;;
78372;SDS011;67656;52.074;4.758;2024-03-06T03:05:35;39.42;;;16.60;;
78372;SDS011;67656;52.074;4.758;2024-03-06T03:10:36;40.60;;;16.27;;
78372;SDS011;67656;52.074;4.758;2024-03-06T03:15:36;37.57;;;16.20;;
78372;SDS011;67656;52.074;4.758;2024-03-06T03:20:37;35.43;;;15.67;;
78372;SDS011;67656;52.074;4.758;2024-03-06T03:25:38;38.47;;;15.90;;
78372;SDS011;67656;52.074;4.758;2024-03-06T03:30:38;39.27;;;15.30;;
78372;SDS011;67656;52.074;4.758;2024-03-06T03:35:39;36.17;;;15.43;;
78372;SDS011;67656;52.074;4.758;2024-03-06T03:40:39;37.97;;;15.47;;
78372;SDS011;67656;52.074;4.758;2024-03-06T03:45:40;36.53;;;15.37;;
78372;SDS011;67656;52.074;4.758;2024-03-06T03:50:40;37.13;;;14.83;;
78372;SDS011;67656;52.074;4.758;2024-03-06T03:55:41;41.33;;;16.60;;
78372;SDS011;67656;52.074;4.758;2024-03-06T04:00:42;37.13;;;15.83;;
78372;SDS011;67656;52.074;4.758;2024-03-06T04:05:42;37.90;;;16.50;;
78372;SDS011;67656;52.074;4.758;2024-03-06T04:10:43;41.27;;;16.43;;
78372;SDS011;67656;52.074;4.758;2024-03-06T04:15:43;39.87;;;17.63;;
78372;SDS011;67656;52.074;4.758;2024-03-06T04:20:44;42.53;;;16.07;;
78372;SDS011;67656;52.074;4.758;2024-03-06T04:25:45;37.30;;;15.83;;
78372;SDS011;67656;52.074;4.758;2024-03-06T04:30:45;46.33;;;17.47;;
78372;SDS011;67656;52.074;4.758;2024-03-06T04:35:47;46.30;;;17.90;;
78372;SDS011;67656;52.074;4.758;2024-03-06T04:40:48;49.83;;;18.67;;
78372;SDS011;67656;52.074;4.758;2024-03-06T04:45:48;46.70;;;18.07;;
78372;SDS011;67656;52.074;4.758;2024-03-06T04:50:49;54.97;;;19.20;;
78372;SDS011;67656;52.074;4.758;2024-03-06T04:55:49;51.10;;;18.17;;
78372;SDS011;67656;52.074;4.758;2024-03-06T05:00:50;52.57;;;19.23;;
78372;SDS011;67656;52.074;4.758;2024-03-06T05:05:51;52.37;;;18.93;;
78372;SDS011;67656;52.074;4.758;2024-03-06T05:10:51;43.80;;;17.00;;
78372;SDS011;67656;52.074;4.758;2024-03-06T05:15:52;50.50;;;18.77;;
78372;SDS011;67656;52.074;4.758;2024-03-06T05:20:52;52.97;;;17.83;;
78372;SDS011;67656;52.074;4.758;2024-03-06T05:25:53;52.37;;;18.07;;
78372;SDS011;67656;52.074;4.758;2024-03-06T05:30:56;46.87;;;17.90;;
78372;SDS011;67656;52.074;4.758;2024-03-06T05:35:57;56.83;;;18.77;;
78372;SDS011;67656;52.074;4.758;2024-03-06T05:40:57;51.30;;;17.10;;
78372;SDS011;67656;52.074;4.758;2024-03-06T05:45:57;50.47;;;17.83;;
78372;SDS011;67656;52.074;4.758;2024-03-06T05:50:58;75.63;;;20.07;;
78372;SDS011;67656;52.074;4.758;2024-03-06T05:55:59;131.00;;;21.33;;
78372;SDS011;67656;52.074;4.758;2024-03-06T06:01:11;108.20;;;18.40;;
78372;SDS011;67656;52.074;4.758;2024-03-06T06:06:17;95.33;;;18.93;;
78372;SDS011;67656;52.074;4.758;2024-03-06T06:11:18;86.87;;;17.93;;
78372;SDS011;67656;52.074;4.758;2024-03-06T06:16:18;89.33;;;17.83;;
78372;SDS011;67656;52.074;4.758;2024-03-06T06:21:18;83.27;;;17.47;;
78372;SDS011;67656;52.074;4.758;2024-03-06T06:26:19;87.60;;;15.63;;
78372;SDS011;67656;52.074;4.758;2024-03-06T06:31:19;50.63;;;15.53;;
78372;SDS011;67656;52.074;4.758;2024-03-06T06:36:20;70.03;;;16.03;;
78372;SDS011;67656;52.074;4.758;2024-03-06T06:41:20;91.30;;;17.17;;
78372;SDS011;67656;52.074;4.758;2024-03-06T06:46:21;43.47;;;14.40;;
78372;SDS011;67656;52.074;4.758;2024-03-06T06:51:22;66.60;;;16.30;;
78372;SDS011;67656;52.074;4.758;2024-03-06T06:56:22;70.60;;;16.37;;
78372;SDS011;67656;52.074;4.758;2024-03-06T07:01:23;91.40;;;18.10;;
78372;SDS011;67656;52.074;4.758;2024-03-06T07:06:23;50.60;;;15.87;;
78372;SDS011;67656;52.074;4.758;2024-03-06T07:11:23;50.50;;;15.83;;
78372;SDS011;67656;52.074;4.758;2024-03-06T07:16:24;71.47;;;17.90;;
78372;SDS011;67656;52.074;4.758;2024-03-06T07:21:25;53.43;;;17.63;;
78372;SDS011;67656;52.074;4.758;2024-03-06T07:26:25;44.83;;;17.27;;
78372;SDS011;67656;52.074;4.758;2024-03-06T07:31:26;54.50;;;18.17;;
78372;SDS011;67656;52.074;4.758;2024-03-06T07:36:26;44.23;;;17.50;;
78372;SDS011;67656;52.074;4.758;2024-03-06T07:41:28;44.57;;;17.47;;
78372;SDS011;67656;52.074;4.758;2024-03-06T07:46:28;43.63;;;16.60;;
78372;SDS011;67656;52.074;4.758;2024-03-06T07:51:29;43.87;;;16.87;;
78372;SDS011;67656;52.074;4.758;2024-03-06T07:56:29;39.13;;;16.67;;
78372;SDS011;67656;52.074;4.758;2024-03-06T08:01:30;44.47;;;18.00;;
78372;SDS011;67656;52.074;4.758;2024-03-06T08:06:30;46.80;;;18.33;;
78372;SDS011;67656;52.074;4.758;2024-03-06T08:11:31;39.67;;;17.17;;
78372;SDS011;67656;52.074;4.758;2024-03-06T08:16:31;35.15;;;15.98;;
78372;SDS011;67656;52.074;4.758;2024-03-06T08:21:32;25.83;;;12.82;;
78372;SDS011;67656;52.074;4.758;2024-03-06T08:26:32;25.27;;;12.52;;
78372;SDS011;67656;52.074;4.758;2024-03-06T08:31:35;22.30;;;12.00;;
78372;SDS011;67656;52.074;4.758;2024-03-06T08:36:36;22.88;;;11.30;;
78372;SDS011;67656;52.074;4.758;2024-03-06T08:41:36;24.35;;;12.15;;
78372;SDS011;67656;52.074;4.758;2024-03-06T08:46:37;26.35;;;12.63;;
78372;SDS011;67656;52.074;4.758;2024-03-06T08:51:37;29.63;;;14.07;;
78372;SDS011;67656;52.074;4.758;2024-03-06T08:56:38;28.45;;;13.98;;
78372;SDS011;67656;52.074;4.758;2024-03-06T09:01:38;31.20;;;14.90;;
78372;SDS011;67656;52.074;4.758;2024-03-06T09:06:39;33.25;;;15.30;;
78372;SDS011;67656;52.074;4.758;2024-03-06T09:11:42;33.97;;;16.20;;
78372;SDS011;67656;52.074;4.758;2024-03-06T09:16:42;33.30;;;16.00;;
78372;SDS011;67656;52.074;4.758;2024-03-06T09:21:43;37.75;;;16.38;;
78372;SDS011;67656;52.074;4.758;2024-03-06T09:26:43;34.50;;;15.68;;
78372;SDS011;67656;52.074;4.758;2024-03-06T09:31:44;30.40;;;15.57;;
78372;SDS011;67656;52.074;4.758;2024-03-06T09:36:45;29.98;;;14.70;;
78372;SDS011;67656;52.074;4.758;2024-03-06T09:41:47;27.88;;;14.68;;
78372;SDS011;67656;52.074;4.758;2024-03-06T09:46:48;29.60;;;15.18;;
78372;SDS011;67656;52.074;4.758;2024-03-06T09:51:49;28.55;;;14.85;;
78372;SDS011;67656;52.074;4.758;2024-03-06T09:56:50;32.88;;;15.65;;
78372;SDS011;67656;52.074;4.758;2024-03-06T10:06:58;28.55;;;14.48;;
78372;SDS011;67656;52.074;4.758;2024-03-06T10:12:00;22.33;;;12.68;;
78372;SDS011;67656;52.074;4.758;2024-03-06T10:17:00;24.33;;;13.88;;
78372;SDS011;67656;52.074;4.758;2024-03-06T10:22:01;24.63;;;13.90;;
78372;SDS011;67656;52.074;4.758;2024-03-06T10:27:06;26.23;;;13.68;;
78372;SDS011;67656;52.074;4.758;2024-03-06T10:32:07;24.95;;;13.90;;
78372;SDS011;67656;52.074;4.758;2024-03-06T10:37:07;23.02;;;12.52;;
78372;SDS011;67656;52.074;4.758;2024-03-06T10:42:08;21.50;;;11.15;;
78372;SDS011;67656;52.074;4.758;2024-03-06T10:47:12;24.95;;;12.52;;
78372;SDS011;67656;52.074;4.758;2024-03-06T10:52:15;23.40;;;11.85;;
78372;SDS011;67656;52.074;4.758;2024-03-06T10:57:18;25.98;;;13.02;;
78372;SDS011;67656;52.074;4.758;2024-03-06T11:02:20;24.50;;;11.27;;
78372;SDS011;67656;52.074;4.758;2024-03-06T11:07:22;21.48;;;11.40;;
78372;SDS011;67656;52.074;4.758;2024-03-06T11:12:33;22.77;;;10.48;;
78372;SDS011;67656;52.074;4.758;2024-03-06T11:17:36;24.73;;;12.10;;
78372;SDS011;67656;52.074;4.758;2024-03-06T11:28:04;21.00;;;8.70;;
78372;SDS011;67656;52.074;4.758;2024-03-06T11:33:06;27.35;;;12.30;;
78372;SDS011;67656;52.074;4.758;2024-03-06T11:38:06;21.50;;;10.77;;
78372;SDS011;67656;52.074;4.758;2024-03-06T11:43:23;25.73;;;11.40;;
78372;SDS011;67656;52.074;4.758;2024-03-06T11:48:26;25.50;;;11.05;;
78372;SDS011;67656;52.074;4.758;2024-03-06T11:53:28;20.98;;;10.82;;
78372;SDS011;67656;52.074;4.758;2024-03-06T11:58:30;19.40;;;9.25;;
78372;SDS011;67656;52.074;4.758;2024-03-06T12:03:31;24.13;;;9.45;;
78372;SDS011;67656;52.074;4.758;2024-03-06T12:08:31;21.05;;;9.68;;
78372;SDS011;67656;52.074;4.758;2024-03-06T12:13:33;23.45;;;10.15;;
78372;SDS011;67656;52.074;4.758;2024-03-06T12:18:34;22.65;;;9.10;;
78372;SDS011;67656;52.074;4.758;2024-03-06T12:23:34;17.15;;;7.97;;
78372;SDS011;67656;52.074;4.758;2024-03-06T12:28:35;16.75;;;7.95;;
78372;SDS011;67656;52.074;4.758;2024-03-06T12:33:39;17.60;;;7.85;;
78372;SDS011;67656;52.074;4.758;2024-03-06T12:38:42;17.80;;;8.32;;
78372;SDS011;67656;52.074;4.758;2024-03-06T12:43:45;19.13;;;8.55;;
78372;SDS011;67656;52.074;4.758;2024-03-06T12:48:49;18.45;;;8.73;;
78372;SDS011;67656;52.074;4.758;2024-03-06T12:53:56;16.00;;;7.63;;
78372;SDS011;67656;52.074;4.758;2024-03-06T12:59:02;15.90;;;7.53;;
78372;SDS011;67656;52.074;4.758;2024-03-06T13:04:03;17.00;;;9.15;;
78372;SDS011;67656;52.074;4.758;2024-03-06T13:09:03;20.15;;;8.93;;
78372;SDS011;67656;52.074;4.758;2024-03-06T13:14:04;17.90;;;9.10;;
78372;SDS011;67656;52.074;4.758;2024-03-06T13:19:04;20.55;;;10.25;;
78372;SDS011;67656;52.074;4.758;2024-03-06T13:24:05;15.80;;;8.27;;
78372;SDS011;67656;52.074;4.758;2024-03-06T13:29:06;19.75;;;9.68;;
78372;SDS011;67656;52.074;4.758;2024-03-06T13:34:07;20.73;;;9.73;;
78372;SDS011;67656;52.074;4.758;2024-03-06T13:39:07;22.48;;;9.90;;
78372;SDS011;67656;52.074;4.758;2024-03-06T13:44:08;17.85;;;8.98;;
78372;SDS011;67656;52.074;4.758;2024-03-06T13:49:08;20.38;;;9.05;;
78372;SDS011;67656;52.074;4.758;2024-03-06T13:54:34;13.40;;;6.97;;
78372;SDS011;67656;52.074;4.758;2024-03-06T13:59:34;12.60;;;6.72;;
78372;SDS011;67656;52.074;4.758;2024-03-06T14:04:35;14.20;;;7.18;;
78372;SDS011;67656;52.074;4.758;2024-03-06T14:09:35;14.85;;;6.78;;
78372;SDS011;67656;52.074;4.758;2024-03-06T14:14:36;17.52;;;8.50;;
78372;SDS011;67656;52.074;4.758;2024-03-06T14:19:36;15.75;;;7.30;;
78372;SDS011;67656;52.074;4.758;2024-03-06T14:24:37;13.63;;;6.43;;
78372;SDS011;67656;52.074;4.758;2024-03-06T14:29:37;13.20;;;6.25;;
78372;SDS011;67656;52.074;4.758;2024-03-06T14:34:38;14.02;;;6.10;;
78372;SDS011;67656;52.074;4.758;2024-03-06T14:39:38;13.57;;;6.80;;
78372;SDS011;67656;52.074;4.758;2024-03-06T14:44:38;13.55;;;7.20;;
78372;SDS011;67656;52.074;4.758;2024-03-06T14:49:42;14.07;;;7.28;;
78372;SDS011;67656;52.074;4.758;2024-03-06T14:54:43;15.32;;;7.43;;
78372;SDS011;67656;52.074;4.758;2024-03-06T14:59:44;12.48;;;6.05;;
78372;SDS011;67656;52.074;4.758;2024-03-06T15:04:44;11.10;;;6.35;;
78372;SDS011;67656;52.074;4.758;2024-03-06T15:09:44;16.95;;;6.65;;
78372;SDS011;67656;52.074;4.758;2024-03-06T15:14:45;14.15;;;6.60;;
78372;SDS011;67656;52.074;4.758;2024-03-06T15:19:45;12.32;;;6.45;;
78372;SDS011;67656;52.074;4.758;2024-03-06T15:24:46;13.93;;;6.57;;
78372;SDS011;67656;52.074;4.758;2024-03-06T15:29:46;12.98;;;6.80;;
78372;SDS011;67656;52.074;4.758;2024-03-06T15:34:47;13.10;;;6.30;;
78372;SDS011;67656;52.074;4.758;2024-03-06T15:40:07;11.82;;;6.18;;
78372;SDS011;67656;52.074;4.758;2024-03-06T15:45:11;11.88;;;6.10;;
78372;SDS011;67656;52.074;4.758;2024-03-06T15:50:11;10.55;;;5.35;;
78372;SDS011;67656;52.074;4.758;2024-03-06T15:55:12;12.40;;;5.75;;
78372;SDS011;67656;52.074;4.758;2024-03-06T16:00:13;11.50;;;5.10;;
78372;SDS011;67656;52.074;4.758;2024-03-06T16:05:13;11.65;;;5.25;;
78372;SDS011;67656;52.074;4.758;2024-03-06T16:10:14;11.15;;;5.40;;
78372;SDS011;67656;52.074;4.758;2024-03-06T16:15:17;12.07;;;4.95;;
78372;SDS011;67656;52.074;4.758;2024-03-06T16:20:18;8.25;;;4.53;;
78372;SDS011;67656;52.074;4.758;2024-03-06T16:25:18;11.70;;;5.38;;
78372;SDS011;67656;52.074;4.758;2024-03-06T16:30:19;11.55;;;5.68;;
78372;SDS011;67656;52.074;4.758;2024-03-06T16:35:25;12.73;;;6.18;;
78372;SDS011;67656;52.074;4.758;2024-03-06T16:40:28;12.60;;;6.30;;
78372;SDS011;67656;52.074;4.758;2024-03-06T16:51:00;14.77;;;6.68;;
78372;SDS011;67656;52.074;4.758;2024-03-06T16:56:03;12.82;;;6.32;;
78372;SDS011;67656;52.074;4.758;2024-03-06T17:01:13;13.18;;;7.15;;
78372;SDS011;67656;52.074;4.758;2024-03-06T17:07:05;16.02;;;6.68;;
78372;SDS011;67656;52.074;4.758;2024-03-06T17:12:07;15.48;;;7.03;;
78372;SDS011;67656;52.074;4.758;2024-03-06T17:17:08;16.92;;;7.38;;
78372;SDS011;67656;52.074;4.758;2024-03-06T17:22:09;15.07;;;6.80;;
78372;SDS011;67656;52.074;4.758;2024-03-06T17:27:09;14.02;;;6.18;;
78372;SDS011;67656;52.074;4.758;2024-03-06T17:32:17;13.95;;;6.50;;
78372;SDS011;67656;52.074;4.758;2024-03-06T17:37:29;17.85;;;7.40;;
78372;SDS011;67656;52.074;4.758;2024-03-06T17:42:32;17.25;;;7.40;;
78372;SDS011;67656;52.074;4.758;2024-03-06T17:47:33;15.80;;;7.00;;
78372;SDS011;67656;52.074;4.758;2024-03-06T17:52:39;20.60;;;9.43;;
78372;SDS011;67656;52.074;4.758;2024-03-06T17:57:48;21.50;;;8.57;;
78372;SDS011;67656;52.074;4.758;2024-03-06T18:02:49;27.27;;;12.33;;
78372;SDS011;67656;52.074;4.758;2024-03-06T18:07:50;11.40;;;5.47;;
78372;SDS011;67656;52.074;4.758;2024-03-06T18:12:50;15.02;;;5.43;;
78372;SDS011;67656;52.074;4.758;2024-03-06T18:17:51;15.20;;;6.43;;
78372;SDS011;67656;52.074;4.758;2024-03-06T18:22:51;14.85;;;6.93;;
78372;SDS011;67656;52.074;4.758;2024-03-06T18:27:52;12.18;;;4.78;;
78372;SDS011;67656;52.074;4.758;2024-03-06T18:32:54;10.73;;;4.60;;
78372;SDS011;67656;52.074;4.758;2024-03-06T18:37:55;11.43;;;4.65;;
78372;SDS011;67656;52.074;4.758;2024-03-06T18:42:55;15.43;;;5.78;;
78372;SDS011;67656;52.074;4.758;2024-03-06T18:47:57;20.30;;;7.38;;
78372;SDS011;67656;52.074;4.758;2024-03-06T18:53:03;20.75;;;7.78;;
78372;SDS011;67656;52.074;4.758;2024-03-06T18:58:03;17.33;;;7.43;;
78372;SDS011;67656;52.074;4.758;2024-03-06T19:28:03;27.38;;;9.80;;
78372;SDS011;67656;52.074;4.758;2024-03-06T19:33:35;28.77;;;11.23;;
78372;SDS011;67656;52.074;4.758;2024-03-06T19:39:05;28.95;;;9.90;;
78372;SDS011;67656;52.074;4.758;2024-03-06T19:44:10;29.03;;;10.50;;
78372;SDS011;67656;52.074;4.758;2024-03-06T19:55:16;28.67;;;10.03;;
78372;SDS011;67656;52.074;4.758;2024-03-06T20:00:46;30.95;;;10.88;;
78372;SDS011;67656;52.074;4.758;2024-03-06T20:06:30;28.65;;;10.20;;
78372;SDS011;67656;52.074;4.758;2024-03-06T20:11:49;32.73;;;11.23;;
78372;SDS011;67656;52.074;4.758;2024-03-06T20:17:21;34.90;;;11.33;;
78372;SDS011;67656;52.074;4.758;2024-03-06T20:22:59;33.07;;;11.47;;
78372;SDS011;67656;52.074;4.758;2024-03-06T20:34:48;32.22;;;11.13;;
78372;SDS011;67656;52.074;4.758;2024-03-06T20:46:30;33.00;;;11.80;;
78372;SDS011;67656;52.074;4.758;2024-03-06T21:03:57;33.30;;;11.33;;
78372;SDS011;67656;52.074;4.758;2024-03-06T21:09:47;33.50;;;11.87;;
78372;SDS011;67656;52.074;4.758;2024-03-06T21:39:59;36.87;;;11.33;;
78372;SDS011;67656;52.074;4.758;2024-03-06T21:45:17;33.53;;;11.20;;
78372;SDS011;67656;52.074;4.758;2024-03-06T22:08:30;34.80;;;10.43;;
78372;SDS011;67656;52.074;4.758;2024-03-06T22:13:59;39.53;;;11.80;;
78372;SDS011;67656;52.074;4.758;2024-03-06T22:36:30;39.37;;;12.47;;
78372;SDS011;67656;52.074;4.758;2024-03-06T22:41:48;42.60;;;13.87;;
78372;SDS011;67656;52.074;4.758;2024-03-06T22:59:52;43.17;;;13.33;;
78372;SDS011;67656;52.074;4.758;2024-03-06T23:06:05;43.03;;;13.00;;
78372;SDS011;67656;52.074;4.758;2024-03-06T23:11:58;39.10;;;13.13;;
78372;SDS011;67656;52.074;4.758;2024-03-06T23:23:57;49.30;;;13.83;;
78372;SDS011;67656;52.074;4.758;2024-03-06T23:30:04;43.07;;;12.90;;
